createdAt,value
2022-10-02T00:00:01.771Z,9.80
2022-10-02T00:02:39.211Z,9.80
2022-10-02T00:05:13.078Z,9.80
2022-10-02T00:07:43.370Z,9.80
2022-10-02T00:10:24.515Z,9.80
2022-10-02T00:12:58.782Z,9.80
2022-10-02T00:15:32.681Z,9.90
2022-10-02T00:18:12.541Z,9.80
2022-10-02T00:21:21.610Z,9.80
2022-10-02T00:23:59.611Z,9.90
2022-10-02T00:26:33.736Z,9.90
2022-10-02T00:29:43.785Z,9.90
2022-10-02T00:32:33.487Z,9.90
2022-10-02T00:35:27.271Z,9.90
2022-10-02T00:38:14.466Z,9.90
2022-10-02T00:41:22.232Z,9.90
2022-10-02T00:44:13.548Z,9.90
2022-10-02T00:46:58.393Z,9.90
2022-10-02T00:49:49.033Z,9.90
2022-10-02T00:52:18.804Z,9.90
2022-10-02T00:55:08.421Z,9.90
2022-10-02T00:57:35.043Z,9.90
2022-10-02T01:00:15.954Z,9.90
2022-10-02T01:03:09.244Z,9.90
2022-10-02T01:05:38.747Z,9.80
2022-10-02T01:08:06.473Z,9.90
2022-10-02T01:10:35.022Z,9.90
2022-10-02T01:13:02.080Z,9.90
2022-10-02T01:15:32.840Z,9.80
2022-10-02T01:18:04.563Z,9.80
2022-10-02T01:20:34.741Z,9.70
2022-10-02T01:23:22.754Z,9.80
2022-10-02T01:25:49.507Z,9.80
2022-10-02T01:28:16.723Z,9.90
2022-10-02T01:30:48.051Z,9.90
2022-10-02T01:33:15.632Z,9.80
2022-10-02T01:35:43.233Z,9.80
2022-10-02T01:38:17.426Z,9.80
2022-10-02T01:40:44.601Z,9.80
2022-10-02T01:43:15.873Z,9.80
2022-10-02T01:45:59.915Z,9.80
2022-10-02T01:48:46.727Z,9.80
2022-10-02T01:51:35.263Z,9.90
2022-10-02T01:54:17.473Z,9.80
2022-10-02T01:56:59.848Z,9.80
2022-10-02T01:59:45.294Z,9.80
2022-10-02T02:02:48.063Z,9.80
2022-10-02T02:05:24.313Z,9.70
2022-10-02T02:08:04.259Z,9.80
2022-10-02T02:10:39.340Z,9.90
2022-10-02T02:13:24.528Z,9.90
2022-10-02T02:16:04.555Z,9.80
2022-10-02T02:18:40.229Z,9.80
2022-10-02T02:21:15.198Z,9.80
2022-10-02T02:23:44.084Z,9.80
2022-10-02T02:26:13.551Z,9.90
2022-10-02T02:28:49.613Z,9.90
2022-10-02T02:31:23.938Z,9.90
2022-10-02T02:33:59.639Z,9.90
2022-10-02T02:36:36.542Z,10.00
2022-10-02T02:39:18.518Z,10.00
2022-10-02T02:41:51.489Z,10.00
2022-10-02T02:44:32.254Z,10.00
2022-10-02T02:47:11.123Z,10.00
2022-10-02T02:49:59.210Z,10.00
2022-10-02T02:52:35.955Z,10.00
2022-10-02T02:55:13.126Z,10.10
2022-10-02T02:57:57.435Z,10.10
2022-10-02T03:00:25.449Z,10.10
2022-10-02T03:02:58.551Z,10.10
2022-10-02T03:05:32.071Z,10.10
2022-10-02T03:08:03.413Z,10.10
2022-10-02T03:11:06.636Z,10.10
2022-10-02T03:13:42.101Z,10.00
2022-10-02T03:16:44.585Z,10.00
2022-10-02T03:19:48.189Z,10.00
2022-10-02T03:22:47.166Z,10.00
2022-10-02T03:25:39.234Z,10.00
2022-10-02T03:28:27.185Z,10.00
2022-10-02T03:31:09.029Z,10.00
2022-10-02T03:33:37.840Z,10.00
2022-10-02T03:36:08.637Z,10.00
2022-10-02T03:38:36.469Z,10.00
2022-10-02T03:41:06.356Z,10.00
2022-10-02T03:43:33.290Z,10.00
2022-10-02T03:46:00.067Z,10.10
2022-10-02T03:48:29.847Z,10.10
2022-10-02T03:50:56.921Z,10.10
2022-10-02T03:53:29.281Z,10.10
2022-10-02T03:56:12.763Z,10.00
2022-10-02T03:58:43.205Z,10.00
2022-10-02T04:01:37.821Z,9.90
2022-10-02T04:04:28.586Z,10.00
2022-10-02T04:07:05.105Z,10.00
2022-10-02T04:09:58.818Z,10.00
2022-10-02T04:12:37.881Z,10.00
2022-10-02T04:15:16.367Z,10.10
2022-10-02T04:17:58.946Z,10.10
2022-10-02T04:20:51.897Z,10.10
2022-10-02T04:23:26.566Z,10.10
2022-10-02T04:25:59.992Z,10.10
2022-10-02T04:28:39.406Z,10.10
2022-10-02T04:31:13.140Z,10.10
2022-10-02T04:33:40.735Z,10.10
2022-10-02T04:36:22.986Z,10.10
2022-10-02T04:39:29.651Z,10.10
2022-10-02T04:42:28.946Z,10.00
2022-10-02T04:45:33.317Z,10.00
2022-10-02T04:48:32.000Z,10.00
2022-10-02T04:51:03.910Z,10.00
2022-10-02T04:53:33.769Z,10.00
2022-10-02T04:56:12.433Z,10.00
2022-10-02T04:59:22.166Z,10.00
2022-10-02T05:01:59.207Z,10.00
2022-10-02T05:04:32.113Z,10.10
2022-10-02T05:07:29.650Z,10.10
2022-10-02T05:10:14.787Z,10.10
2022-10-02T05:12:53.508Z,10.10
2022-10-02T05:15:44.555Z,10.20
2022-10-02T05:18:39.064Z,10.20
2022-10-02T05:21:26.660Z,10.20
2022-10-02T05:24:18.859Z,10.30
2022-10-02T05:27:13.771Z,10.30
2022-10-02T05:30:05.666Z,10.30
2022-10-02T05:32:54.510Z,10.30
2022-10-02T05:35:55.270Z,10.40
2022-10-02T05:38:51.015Z,10.40
2022-10-02T05:41:40.851Z,10.50
2022-10-02T05:44:37.880Z,10.50
2022-10-02T05:47:41.169Z,10.50
2022-10-02T05:50:33.806Z,10.50
2022-10-02T05:53:27.189Z,10.50
2022-10-02T05:56:05.171Z,10.50
2022-10-02T05:58:47.714Z,10.50
2022-10-02T06:01:37.903Z,10.50
2022-10-02T06:04:18.025Z,10.50
2022-10-02T06:06:57.658Z,10.50
2022-10-02T06:09:46.435Z,10.50
2022-10-02T06:12:26.822Z,10.50
2022-10-02T06:15:29.161Z,10.50
2022-10-02T06:18:04.654Z,10.50
2022-10-02T06:20:40.644Z,10.40
2022-10-02T06:23:21.030Z,10.50
2022-10-02T06:25:52.978Z,10.40
2022-10-02T06:28:51.121Z,10.40
2022-10-02T06:31:26.997Z,10.40
2022-10-02T06:33:54.358Z,10.40
2022-10-02T06:36:46.882Z,10.40
2022-10-02T06:39:26.039Z,10.40
2022-10-02T06:42:02.406Z,10.40
2022-10-02T06:44:48.361Z,10.40
2022-10-02T06:47:36.951Z,10.40
2022-10-02T06:50:34.198Z,10.40
2022-10-02T06:53:37.142Z,10.40
2022-10-02T06:56:16.033Z,10.40
2022-10-02T06:59:07.938Z,10.40
2022-10-02T07:01:41.399Z,10.40
2022-10-02T07:04:36.701Z,10.40
2022-10-02T07:07:27.453Z,10.40
2022-10-02T07:10:38.184Z,10.40
2022-10-02T07:13:40.155Z,10.40
2022-10-02T07:16:25.351Z,10.40
2022-10-02T07:19:33.039Z,10.40
2022-10-02T07:22:45.709Z,10.40
2022-10-02T07:25:16.410Z,10.40
2022-10-02T07:28:16.592Z,10.40
2022-10-02T07:30:51.421Z,10.50
2022-10-02T07:33:29.147Z,10.50
2022-10-02T07:36:34.354Z,10.50
2022-10-02T07:39:20.111Z,10.50
2022-10-02T07:42:33.802Z,10.50
2022-10-02T07:45:25.486Z,10.50
2022-10-02T07:48:27.499Z,10.50
2022-10-02T07:51:49.917Z,10.60
2022-10-02T07:54:28.947Z,10.60
2022-10-02T07:57:06.339Z,10.60
2022-10-02T07:59:43.682Z,10.60
2022-10-02T08:02:25.045Z,10.70
2022-10-02T08:05:00.765Z,10.80
2022-10-02T08:07:29.521Z,10.80
2022-10-02T08:10:05.622Z,10.90
2022-10-02T08:12:37.018Z,10.90
2022-10-02T08:15:06.157Z,10.90
2022-10-02T08:17:49.937Z,11.00
2022-10-02T08:20:30.504Z,11.00
2022-10-02T08:23:00.476Z,11.00
2022-10-02T08:25:34.625Z,11.00
2022-10-02T08:28:23.112Z,11.00
2022-10-02T08:30:53.256Z,11.00
2022-10-02T08:33:24.653Z,10.90
2022-10-02T08:36:01.669Z,11.00
2022-10-02T08:38:41.314Z,11.00
2022-10-02T08:41:56.806Z,11.00
2022-10-02T08:44:55.360Z,11.10
2022-10-02T08:47:41.194Z,11.20
2022-10-02T08:50:20.200Z,11.30
2022-10-02T08:53:11.935Z,11.50
2022-10-02T08:56:08.359Z,11.60
2022-10-02T08:58:58.189Z,11.60
2022-10-02T09:01:35.122Z,11.60
2022-10-02T09:04:14.078Z,11.60
2022-10-02T09:07:09.565Z,11.60
2022-10-02T09:09:59.321Z,11.50
2022-10-02T09:12:46.137Z,11.50
2022-10-02T09:15:17.787Z,11.30
2022-10-02T09:17:51.184Z,11.20
2022-10-02T09:20:36.866Z,11.10
2022-10-02T09:23:28.493Z,11.10
2022-10-02T09:26:24.010Z,11.00
2022-10-02T09:29:35.220Z,10.90
2022-10-02T09:32:34.518Z,10.90
2022-10-02T09:35:31.959Z,10.90
2022-10-02T09:38:29.733Z,10.90
2022-10-02T09:41:50.579Z,11.00
2022-10-02T09:44:35.775Z,11.00
2022-10-02T09:47:19.400Z,11.10
2022-10-02T09:50:05.032Z,11.30
2022-10-02T09:53:03.165Z,11.40
2022-10-02T09:56:07.391Z,11.40
2022-10-02T09:59:00.724Z,11.30
2022-10-02T10:01:43.508Z,11.30
2022-10-02T10:04:13.569Z,11.40
2022-10-02T10:07:19.211Z,11.40
2022-10-02T10:10:07.514Z,11.40
2022-10-02T10:12:52.836Z,11.40
2022-10-02T10:15:34.997Z,11.40
2022-10-02T10:18:31.438Z,11.40
2022-10-02T10:21:10.321Z,11.50
2022-10-02T10:24:07.820Z,11.50
2022-10-02T10:27:13.392Z,11.50
2022-10-02T10:30:14.101Z,11.50
2022-10-02T10:33:14.735Z,11.60
2022-10-02T10:36:30.189Z,11.50
2022-10-02T10:39:32.164Z,11.40
2022-10-02T10:42:50.159Z,11.30
2022-10-02T10:45:23.080Z,11.30
2022-10-02T10:48:05.125Z,11.30
2022-10-02T10:51:16.534Z,11.30
2022-10-02T10:54:11.480Z,11.30
2022-10-02T10:56:44.790Z,11.30
2022-10-02T11:00:03.104Z,11.30
2022-10-02T11:02:38.639Z,11.30
2022-10-02T11:05:26.875Z,11.30
2022-10-02T11:08:19.493Z,11.30
2022-10-02T11:11:30.776Z,11.40
2022-10-02T11:14:15.886Z,11.40
2022-10-02T11:16:45.465Z,11.50
2022-10-02T11:19:33.449Z,11.50
2022-10-02T11:22:00.408Z,11.60
2022-10-02T11:24:40.390Z,11.60
2022-10-02T11:27:34.319Z,11.60
2022-10-02T11:30:10.050Z,11.60
2022-10-02T11:32:39.774Z,11.80
2022-10-02T11:35:24.980Z,11.90
2022-10-02T11:38:15.297Z,11.90
2022-10-02T11:41:10.150Z,12.00
2022-10-02T11:44:04.974Z,11.80
2022-10-02T11:46:56.546Z,11.70
2022-10-02T11:49:26.467Z,11.60
2022-10-02T11:51:56.149Z,11.60
2022-10-02T11:54:55.733Z,11.60
2022-10-02T11:57:35.365Z,11.60
2022-10-02T12:00:18.552Z,11.60
2022-10-02T12:02:56.737Z,11.60
2022-10-02T12:06:00.673Z,11.60
2022-10-02T12:08:44.757Z,11.70
2022-10-02T12:11:34.432Z,11.70
2022-10-02T12:14:40.187Z,11.60
2022-10-02T12:17:34.545Z,11.60
2022-10-02T12:20:35.244Z,11.60
2022-10-02T12:23:36.515Z,11.50
2022-10-02T12:27:09.978Z,11.50
2022-10-02T12:29:55.208Z,11.50
2022-10-02T12:32:49.848Z,11.50
2022-10-02T12:35:26.277Z,11.50
2022-10-02T12:38:07.986Z,11.40
2022-10-02T12:41:08.304Z,11.40
2022-10-02T12:43:55.555Z,11.40
2022-10-02T12:46:45.400Z,11.40
2022-10-02T12:49:25.540Z,11.50
2022-10-02T12:52:33.590Z,11.50
2022-10-02T12:55:32.877Z,11.40
2022-10-02T12:58:23.072Z,11.40
2022-10-02T13:01:18.615Z,11.30
2022-10-02T13:04:08.583Z,11.20
2022-10-02T13:07:00.309Z,11.20
2022-10-02T13:09:52.715Z,11.10
2022-10-02T13:12:52.163Z,11.10
2022-10-02T13:15:23.863Z,11.10
2022-10-02T13:18:09.536Z,11.10
2022-10-02T13:20:48.229Z,11.20
2022-10-02T13:23:53.216Z,11.20
2022-10-02T13:26:51.854Z,11.20
2022-10-02T13:30:09.755Z,11.20
2022-10-02T13:32:55.330Z,11.10
2022-10-02T13:35:33.805Z,11.00
2022-10-02T13:38:38.626Z,11.00
2022-10-02T13:41:14.017Z,10.90
2022-10-02T13:43:58.666Z,10.90
2022-10-02T13:46:45.131Z,10.90
2022-10-02T13:49:41.033Z,11.00
2022-10-02T13:52:07.809Z,11.00
2022-10-02T13:54:52.509Z,11.10
2022-10-02T13:57:32.018Z,11.10
2022-10-02T14:00:09.854Z,11.10
2022-10-02T14:02:42.630Z,11.10
2022-10-02T14:05:27.203Z,11.20
2022-10-02T14:08:13.852Z,11.10
2022-10-02T14:11:20.383Z,11.10
2022-10-02T14:14:25.022Z,11.20
2022-10-02T14:17:19.654Z,11.20
2022-10-02T14:20:03.119Z,11.30
2022-10-02T14:23:08.374Z,11.40
2022-10-02T14:26:08.038Z,11.40
2022-10-02T14:29:09.528Z,11.30
2022-10-02T14:32:26.651Z,11.20
2022-10-02T14:35:16.054Z,11.10
2022-10-02T14:38:10.742Z,11.00
2022-10-02T14:40:53.645Z,11.10
2022-10-02T14:43:34.959Z,11.10
2022-10-02T14:46:16.871Z,11.20
2022-10-02T14:48:55.952Z,11.20
2022-10-02T14:51:44.381Z,11.20
2022-10-02T14:54:30.091Z,11.20
2022-10-02T14:57:16.196Z,11.20
2022-10-02T15:00:11.028Z,11.20
2022-10-02T15:02:58.731Z,11.20
2022-10-02T15:05:45.423Z,11.10
2022-10-02T15:08:36.794Z,11.10
2022-10-02T15:11:08.306Z,11.20
2022-10-02T15:13:44.171Z,11.20
2022-10-02T15:16:42.597Z,11.30
2022-10-02T15:19:19.267Z,11.30
2022-10-02T15:22:02.112Z,11.30
2022-10-02T15:24:31.258Z,11.30
2022-10-02T15:27:20.029Z,11.40
2022-10-02T15:30:23.498Z,11.50
2022-10-02T15:33:08.861Z,11.50
2022-10-02T15:36:09.493Z,11.50
2022-10-02T15:39:14.832Z,11.50
2022-10-02T15:42:02.724Z,11.50
2022-10-02T15:44:45.471Z,11.50
2022-10-02T15:47:29.919Z,11.50
2022-10-02T15:50:08.107Z,11.40
2022-10-02T15:52:44.559Z,11.40
2022-10-02T15:55:20.552Z,11.40
2022-10-02T15:58:16.954Z,11.40
2022-10-02T16:01:08.171Z,11.30
2022-10-02T16:03:54.601Z,11.30
2022-10-02T16:06:44.301Z,11.20
2022-10-02T16:09:48.289Z,11.20
2022-10-02T16:12:23.826Z,11.20
2022-10-02T16:15:12.022Z,11.20
2022-10-02T16:17:47.883Z,11.10
2022-10-02T16:20:42.175Z,11.10
2022-10-02T16:23:23.797Z,11.10
2022-10-02T16:26:08.768Z,11.10
2022-10-02T16:29:12.036Z,11.00
2022-10-02T16:32:07.006Z,11.00
2022-10-02T16:35:03.403Z,11.00
2022-10-02T16:37:46.124Z,10.90
2022-10-02T16:40:23.151Z,10.90
2022-10-02T16:43:23.509Z,10.90
2022-10-02T16:45:59.428Z,11.00
2022-10-02T16:48:40.066Z,11.00
2022-10-02T16:51:32.194Z,11.00
2022-10-02T16:54:34.467Z,10.90
2022-10-02T16:57:27.543Z,10.90
2022-10-02T17:00:15.896Z,10.90
2022-10-02T17:03:08.155Z,10.90
2022-10-02T17:05:57.450Z,10.90
2022-10-02T17:08:39.468Z,10.90
2022-10-02T17:11:20.446Z,10.90
2022-10-02T17:14:16.107Z,10.80
2022-10-02T17:16:58.073Z,10.80
2022-10-02T17:19:58.409Z,10.90
2022-10-02T17:22:43.917Z,10.90
2022-10-02T17:25:13.681Z,10.90
2022-10-02T17:28:04.806Z,10.90
2022-10-02T17:31:00.961Z,10.90
2022-10-02T17:33:45.437Z,10.80
2022-10-02T17:36:35.770Z,10.80
2022-10-02T17:39:21.073Z,10.80
2022-10-02T17:42:10.022Z,10.80
2022-10-02T17:45:03.643Z,10.70
2022-10-02T17:47:57.561Z,10.50
2022-10-02T17:50:34.327Z,10.20
2022-10-02T17:53:19.939Z,10.00
2022-10-02T17:56:34.774Z,9.90
2022-10-02T17:59:20.221Z,9.70
2022-10-02T18:01:59.137Z,9.60
2022-10-02T18:04:46.079Z,9.50
2022-10-02T18:07:34.076Z,9.50
2022-10-02T18:10:23.844Z,9.40
2022-10-02T18:13:32.565Z,9.40
2022-10-02T18:16:29.056Z,9.30
2022-10-02T18:19:15.637Z,9.30
2022-10-02T18:21:57.861Z,9.30
2022-10-02T18:24:58.506Z,9.20
2022-10-02T18:27:59.699Z,9.20
2022-10-02T18:30:44.067Z,9.10
2022-10-02T18:33:32.435Z,9.10
2022-10-02T18:36:26.840Z,9.20
2022-10-02T18:39:19.873Z,9.10
2022-10-02T18:41:57.106Z,9.10
2022-10-02T18:44:55.100Z,9.10
2022-10-02T18:47:35.306Z,9.00
2022-10-02T18:50:26.099Z,9.00
2022-10-02T18:53:09.241Z,9.10
2022-10-02T18:55:44.545Z,9.10
2022-10-02T18:58:37.147Z,9.10
2022-10-02T19:01:30.863Z,9.20
2022-10-02T19:04:30.217Z,9.30
2022-10-02T19:07:13.101Z,9.40
2022-10-02T19:09:42.134Z,9.50
2022-10-02T19:12:22.616Z,9.50
2022-10-02T19:14:55.178Z,9.50
2022-10-02T19:17:26.682Z,9.60
2022-10-02T19:19:54.371Z,9.70
2022-10-02T19:22:25.829Z,9.70
2022-10-02T19:25:21.281Z,9.70
2022-10-02T19:27:59.787Z,9.80
2022-10-02T19:30:29.880Z,9.80
2022-10-02T19:33:01.691Z,9.80
2022-10-02T19:35:33.602Z,9.80
2022-10-02T19:38:31.154Z,9.90
2022-10-02T19:41:00.840Z,9.90
2022-10-02T19:43:34.367Z,9.90
2022-10-02T19:46:05.454Z,9.90
2022-10-02T19:48:33.688Z,9.90
2022-10-02T19:51:10.961Z,9.90
2022-10-02T19:53:51.206Z,9.90
2022-10-02T19:56:34.656Z,9.90
2022-10-02T19:59:20.048Z,10.00
2022-10-02T20:01:55.979Z,10.00
2022-10-02T20:04:29.701Z,10.00
2022-10-02T20:06:59.253Z,10.00
2022-10-02T20:09:51.191Z,10.00
2022-10-02T20:12:32.990Z,10.00
2022-10-02T20:15:12.399Z,10.00
2022-10-02T20:17:39.953Z,10.00
2022-10-02T20:20:13.047Z,10.00
2022-10-02T20:22:55.271Z,10.00
2022-10-02T20:25:29.318Z,10.00
2022-10-02T20:28:17.365Z,9.90
2022-10-02T20:30:52.195Z,9.80
2022-10-02T20:33:52.107Z,9.80
2022-10-02T20:36:31.171Z,9.80
2022-10-02T20:39:21.121Z,9.80
2022-10-02T20:42:00.050Z,9.80
2022-10-02T20:44:31.622Z,9.80
2022-10-02T20:47:11.331Z,9.80
2022-10-02T20:50:09.350Z,9.80
2022-10-02T20:53:02.430Z,9.80
2022-10-02T20:55:50.802Z,9.70
2022-10-02T20:58:39.417Z,9.70
2022-10-02T21:01:20.821Z,9.70
2022-10-02T21:04:35.298Z,9.70
2022-10-02T21:07:43.976Z,9.70
2022-10-02T21:10:48.464Z,9.70
2022-10-02T21:13:46.385Z,9.60
2022-10-02T21:16:38.021Z,9.50
2022-10-02T21:19:15.797Z,9.40
2022-10-02T21:22:08.304Z,9.30
2022-10-02T21:24:57.129Z,9.30
2022-10-02T21:27:41.883Z,9.40
2022-10-02T21:30:17.958Z,9.40
2022-10-02T21:32:56.817Z,9.40
2022-10-02T21:35:40.083Z,9.40
2022-10-02T21:38:12.692Z,9.50
2022-10-02T21:41:10.963Z,9.60
2022-10-02T21:44:06.128Z,9.60
2022-10-02T21:46:52.100Z,9.60
2022-10-02T21:49:48.882Z,9.70
2022-10-02T21:52:53.314Z,9.70
2022-10-02T21:55:58.491Z,9.70
2022-10-02T21:58:53.285Z,9.70
2022-10-02T22:01:23.204Z,9.70
2022-10-02T22:04:08.766Z,9.70
2022-10-02T22:06:50.131Z,9.60
2022-10-02T22:09:44.523Z,9.60
2022-10-02T22:12:28.674Z,9.60
2022-10-02T22:15:19.939Z,9.60
2022-10-02T22:17:52.866Z,9.50
2022-10-02T22:20:41.181Z,9.50
2022-10-02T22:23:39.252Z,9.50
2022-10-02T22:26:14.223Z,9.50
2022-10-02T22:28:45.529Z,9.50
2022-10-02T22:31:40.048Z,9.50
2022-10-02T22:34:25.700Z,9.50
2022-10-02T22:37:20.183Z,9.50
2022-10-02T22:39:58.801Z,9.50
2022-10-02T22:42:54.905Z,9.50
2022-10-02T22:45:35.936Z,9.40
2022-10-02T22:48:24.886Z,9.40
2022-10-02T22:50:58.092Z,9.40
2022-10-02T22:53:57.449Z,9.40
2022-10-02T22:56:47.859Z,9.50
2022-10-02T22:59:38.327Z,9.50
2022-10-02T23:02:22.812Z,9.40
2022-10-02T23:05:05.528Z,9.40
2022-10-02T23:07:45.630Z,9.40
2022-10-02T23:10:25.377Z,9.40
2022-10-02T23:13:08.758Z,9.40
2022-10-02T23:16:15.870Z,9.40
2022-10-02T23:18:52.193Z,9.40
2022-10-02T23:21:56.577Z,9.40
2022-10-02T23:24:48.789Z,9.30
2022-10-02T23:27:24.465Z,9.30
2022-10-02T23:30:12.900Z,9.30
2022-10-02T23:33:04.923Z,9.20
2022-10-02T23:35:57.285Z,9.20
2022-10-02T23:38:58.504Z,9.20
2022-10-02T23:41:39.426Z,9.20
2022-10-02T23:44:26.836Z,9.20
2022-10-02T23:47:17.070Z,9.20
2022-10-02T23:49:52.666Z,9.10
2022-10-02T23:52:51.539Z,9.10
2022-10-02T23:55:27.413Z,9.10
2022-10-02T23:57:57.389Z,9.10
